sensor_id;sensor_type;location;lat;lon;timestamp;pressure;altitude;pressure_sealevel;temperature;humidity
77325;BME280;66387;53.440;10.390;2024-03-02T02:28:21;99757.97;;;7.78;100.00
77325;BME280;66387;53.440;10.390;2024-03-02T02:30:47;99755.38;;;7.78;100.00
77325;BME280;66387;53.440;10.390;2024-03-02T02:33:13;99755.44;;;7.73;100.00
77325;BME280;66387;53.440;10.390;2024-03-02T02:35:38;99758.91;;;7.72;100.00
77325;BME280;66387;53.440;10.390;2024-03-02T02:38:04;99752.88;;;7.73;100.00
77325;BME280;66387;53.440;10.390;2024-03-02T02:40:30;99752.88;;;7.73;100.00
77325;BME280;66387;53.440;10.390;2024-03-02T02:42:56;99752.88;;;7.73;100.00
77325;BME280;66387;53.440;10.390;2024-03-02T02:45:22;99756.31;;;7.74;100.00
77325;BME280;66387;53.440;10.390;2024-03-02T02:47:48;99758.88;;;7.74;100.00
77325;BME280;66387;53.440;10.390;2024-03-02T02:50:14;99756.34;;;7.71;100.00
77325;BME280;66387;53.440;10.390;2024-03-02T02:52:41;99758.09;;;7.70;100.00
77325;BME280;66387;53.440;10.390;2024-03-02T02:55:09;99752.94;;;7.69;100.00
77325;BME280;66387;53.440;10.390;2024-03-02T02:57:35;99746.97;;;7.65;100.00
77325;BME280;66387;53.440;10.390;2024-03-02T03:02:41;99740.88;;;7.69;100.00
77325;BME280;66387;53.440;10.390;2024-03-02T03:05:09;99747.75;;;7.69;100.00
77325;BME280;66387;53.440;10.390;2024-03-02T03:07:35;99749.47;;;7.71;100.00
77325;BME280;66387;53.440;10.390;2024-03-02T03:10:02;99741.78;;;7.67;100.00
77325;BME280;66387;53.440;10.390;2024-03-02T03:12:29;99740.97;;;7.63;100.00
77325;BME280;66387;53.440;10.390;2024-03-02T03:14:55;99741.88;;;7.61;100.00
77325;BME280;66387;53.440;10.390;2024-03-02T03:17:23;99745.34;;;7.60;100.00
77325;BME280;66387;53.440;10.390;2024-03-02T03:19:50;99743.56;;;7.62;100.00
77325;BME280;66387;53.440;10.390;2024-03-02T03:22:16;99744.38;;;7.67;100.00
77325;BME280;66387;53.440;10.390;2024-03-02T03:24:41;99741.78;;;7.65;100.00
77325;BME280;66387;53.440;10.390;2024-03-02T03:27:07;99737.47;;;7.66;100.00
77325;BME280;66387;53.440;10.390;2024-03-02T03:29:32;99740.13;;;7.63;100.00
77325;BME280;66387;53.440;10.390;2024-03-02T03:31:58;99735.94;;;7.56;100.00
77325;BME280;66387;53.440;10.390;2024-03-02T03:34:24;99737.72;;;7.51;100.00
77325;BME280;66387;53.440;10.390;2024-03-02T03:36:49;99733.50;;;7.47;100.00
77325;BME280;66387;53.440;10.390;2024-03-02T03:39:15;99735.25;;;7.43;100.00
77325;BME280;66387;53.440;10.390;2024-03-02T03:41:41;99737.84;;;7.42;100.00
77325;BME280;66387;53.440;10.390;2024-03-02T03:44:06;99739.47;;;7.47;100.00
77325;BME280;66387;53.440;10.390;2024-03-02T03:46:32;99732.53;;;7.51;100.00
77325;BME280;66387;53.440;10.390;2024-03-02T03:48:57;99738.56;;;7.53;100.00
77325;BME280;66387;53.440;10.390;2024-03-02T03:51:23;99740.28;;;7.51;100.00
77325;BME280;66387;53.440;10.390;2024-03-02T03:53:49;99735.97;;;7.51;100.00
77325;BME280;66387;53.440;10.390;2024-03-02T03:56:14;99736.88;;;7.49;100.00
77325;BME280;66387;53.440;10.390;2024-03-02T03:58:40;99733.41;;;7.51;100.00
77325;BME280;66387;53.440;10.390;2024-03-02T04:01:06;99735.09;;;7.54;100.00
77325;BME280;66387;53.440;10.390;2024-03-02T04:03:31;99733.28;;;7.59;100.00
77325;BME280;66387;53.440;10.390;2024-03-02T04:05:57;99742.75;;;7.58;100.00
77325;BME280;66387;53.440;10.390;2024-03-02T04:08:22;99736.69;;;7.62;100.00
77325;BME280;66387;53.440;10.390;2024-03-02T04:10:48;99740.97;;;7.63;100.00
77325;BME280;66387;53.440;10.390;2024-03-02T04:13:14;99734.03;;;7.68;100.00
77325;BME280;66387;53.440;10.390;2024-03-02T04:15:39;99733.97;;;7.71;100.00
77325;BME280;66387;53.440;10.390;2024-03-02T04:18:06;99719.31;;;7.72;100.00
77325;BME280;66387;53.440;10.390;2024-03-02T04:20:31;99722.66;;;7.77;100.00
77325;BME280;66387;53.440;10.390;2024-03-02T04:22:57;99720.94;;;7.79;100.00
77325;BME280;66387;53.440;10.390;2024-03-02T04:25:23;99720.84;;;7.83;100.00
77325;BME280;66387;53.440;10.390;2024-03-02T04:27:48;99725.13;;;7.84;100.00
77325;BME280;66387;53.440;10.390;2024-03-02T04:30:14;99724.22;;;7.88;100.00
77325;BME280;66387;53.440;10.390;2024-03-02T04:32:40;99719.03;;;7.90;100.00
77325;BME280;66387;53.440;10.390;2024-03-02T04:35:06;99716.38;;;7.93;100.00
77325;BME280;66387;53.440;10.390;2024-03-02T04:37:35;99719.78;;;7.95;100.00
77325;BME280;66387;53.440;10.390;2024-03-02T04:40:01;99719.84;;;7.94;100.00
77325;BME280;66387;53.440;10.390;2024-03-02T04:42:26;99723.28;;;7.91;100.00
77325;BME280;66387;53.440;10.390;2024-03-02T04:44:52;99725.97;;;7.86;100.00
77325;BME280;66387;53.440;10.390;2024-03-02T04:47:17;99731.16;;;7.85;100.00
77325;BME280;66387;53.440;10.390;2024-03-02T04:49:43;99723.56;;;7.76;100.00
77325;BME280;66387;53.440;10.390;2024-03-02T04:52:09;99729.63;;;7.73;100.00
77325;BME280;66387;53.440;10.390;2024-03-02T04:54:34;99728.81;;;7.70;100.00
77325;BME280;66387;53.440;10.390;2024-03-02T04:57:20;99732.25;;;7.69;100.00
77325;BME280;66387;53.440;10.390;2024-03-02T04:59:45;99735.00;;;7.58;100.00
77325;BME280;66387;53.440;10.390;2024-03-02T05:02:11;99735.97;;;7.53;100.00
77325;BME280;66387;53.440;10.390;2024-03-02T05:04:39;99731.81;;;7.43;100.00
77325;BME280;66387;53.440;10.390;2024-03-02T05:07:05;99741.38;;;7.36;100.00
77325;BME280;66387;53.440;10.390;2024-03-02T05:09:31;99744.75;;;7.39;100.00
77325;BME280;66387;53.440;10.390;2024-03-02T05:11:56;99738.81;;;7.34;100.00
77325;BME280;66387;53.440;10.390;2024-03-02T05:14:34;99742.22;;;7.36;100.00
77325;BME280;66387;53.440;10.390;2024-03-02T05:16:59;99748.28;;;7.35;100.00
77325;BME280;66387;53.440;10.390;2024-03-02T05:19:25;99747.38;;;7.36;100.00
77325;BME280;66387;53.440;10.390;2024-03-02T05:21:51;99743.06;;;7.38;100.00
77325;BME280;66387;53.440;10.390;2024-03-02T05:24:17;99730.16;;;7.38;100.00
77325;BME280;66387;53.440;10.390;2024-03-02T05:26:42;99737.00;;;7.39;100.00
77325;BME280;66387;53.440;10.390;2024-03-02T05:29:08;99737.00;;;7.43;100.00
77325;BME280;66387;53.440;10.390;2024-03-02T05:31:34;99732.66;;;7.45;100.00
77325;BME280;66387;53.440;10.390;2024-03-02T05:34:00;99736.94;;;7.44;100.00
77325;BME280;66387;53.440;10.390;2024-03-02T05:36:25;99736.91;;;7.47;100.00
77325;BME280;66387;53.440;10.390;2024-03-02T05:38:51;99741.16;;;7.51;100.00
77325;BME280;66387;53.440;10.390;2024-03-02T05:41:16;99730.84;;;7.50;100.00
77325;BME280;66387;53.440;10.390;2024-03-02T05:43:42;99731.69;;;7.52;100.00
77325;BME280;66387;53.440;10.390;2024-03-02T05:46:08;99738.59;;;7.50;100.00
77325;BME280;66387;53.440;10.390;2024-03-02T05:48:34;99729.94;;;7.54;100.00
77325;BME280;66387;53.440;10.390;2024-03-02T05:50:59;99731.63;;;7.55;100.00
77325;BME280;66387;53.440;10.390;2024-03-02T05:53:25;99735.13;;;7.51;100.00
77325;BME280;66387;53.440;10.390;2024-03-02T05:55:51;99730.00;;;7.49;100.00
77325;BME280;66387;53.440;10.390;2024-03-02T05:58:21;99735.13;;;7.51;100.00
77325;BME280;66387;53.440;10.390;2024-03-02T06:00:50;99736.88;;;7.49;100.00
77325;BME280;66387;53.440;10.390;2024-03-02T06:03:16;99742.00;;;7.53;100.00
77325;BME280;66387;53.440;10.390;2024-03-02T06:05:41;99740.28;;;7.54;100.00
77325;BME280;66387;53.440;10.390;2024-03-02T06:08:07;99747.13;;;7.55;100.00
77325;BME280;66387;53.440;10.390;2024-03-02T06:10:32;99746.25;;;7.54;100.00
77325;BME280;66387;53.440;10.390;2024-03-02T06:12:58;99741.13;;;7.53;100.00
77325;BME280;66387;53.440;10.390;2024-03-02T06:15:24;99738.50;;;7.56;100.00
77325;BME280;66387;53.440;10.390;2024-03-02T06:17:50;99740.19;;;7.58;100.00
77325;BME280;66387;53.440;10.390;2024-03-02T06:20:15;99739.31;;;7.61;100.00
77325;BME280;66387;53.440;10.390;2024-03-02T06:22:41;99743.56;;;7.62;100.00
77325;BME280;66387;53.440;10.390;2024-03-02T06:25:07;99735.81;;;7.63;100.00
77325;BME280;66387;53.440;10.390;2024-03-02T06:27:33;99747.94;;;7.58;100.00
77325;BME280;66387;53.440;10.390;2024-03-02T06:29:58;99747.97;;;7.57;100.00
77325;BME280;66387;53.440;10.390;2024-03-02T06:32:24;99748.81;;;7.57;100.00
77325;BME280;66387;53.440;10.390;2024-03-02T06:34:50;99753.16;;;7.55;100.00
77325;BME280;66387;53.440;10.390;2024-03-02T06:37:16;99746.38;;;7.48;100.00
77325;BME280;66387;53.440;10.390;2024-03-02T06:39:41;99747.31;;;7.43;100.00
77325;BME280;66387;53.440;10.390;2024-03-02T06:42:07;99752.50;;;7.39;100.00
77325;BME280;66387;53.440;10.390;2024-03-02T06:44:34;99750.78;;;7.42;100.00
77325;BME280;66387;53.440;10.390;2024-03-02T06:46:59;99754.28;;;7.36;100.00
77325;BME280;66387;53.440;10.390;2024-03-02T06:49:25;99758.53;;;7.40;100.00
77325;BME280;66387;53.440;10.390;2024-03-02T06:51:51;99756.78;;;7.42;100.00
77325;BME280;66387;53.440;10.390;2024-03-02T06:54:17;99761.94;;;7.42;100.00
77325;BME280;66387;53.440;10.390;2024-03-02T06:56:42;99770.56;;;7.43;100.00
77325;BME280;66387;53.440;10.390;2024-03-02T06:59:08;99761.00;;;7.48;100.00
77325;BME280;66387;53.440;10.390;2024-03-02T07:01:34;99761.84;;;7.48;100.00
77325;BME280;66387;53.440;10.390;2024-03-02T07:04:00;99766.09;;;7.54;100.00
77325;BME280;66387;53.440;10.390;2024-03-02T07:06:25;99768.63;;;7.57;100.00
77325;BME280;66387;53.440;10.390;2024-03-02T07:08:51;99762.56;;;7.61;100.00
77325;BME280;66387;53.440;10.390;2024-03-02T07:11:16;99765.94;;;7.63;100.00
77325;BME280;66387;53.440;10.390;2024-03-02T07:13:42;99761.59;;;7.66;100.00
77325;BME280;66387;53.440;10.390;2024-03-02T07:16:08;99764.97;;;7.71;100.00
77325;BME280;66387;53.440;10.390;2024-03-02T07:18:33;99760.66;;;7.72;100.00
77325;BME280;66387;53.440;10.390;2024-03-02T07:21:00;99767.50;;;7.76;100.00
77325;BME280;66387;53.440;10.390;2024-03-02T07:23:29;99763.09;;;7.81;100.00
77325;BME280;66387;53.440;10.390;2024-03-02T07:25:56;99767.31;;;7.86;100.00
77325;BME280;66387;53.440;10.390;2024-03-02T07:28:24;99769.81;;;7.91;100.00
77325;BME280;66387;53.440;10.390;2024-03-02T07:31:00;99774.84;;;7.99;100.00
77325;BME280;66387;53.440;10.390;2024-03-02T07:33:26;99770.50;;;8.02;100.00
77325;BME280;66387;53.440;10.390;2024-03-02T07:35:53;99771.28;;;8.07;100.00
77325;BME280;66387;53.440;10.390;2024-03-02T07:38:19;99763.41;;;8.13;100.00
77325;BME280;66387;53.440;10.390;2024-03-02T07:40:45;99760.78;;;8.16;100.00
77325;BME280;66387;53.440;10.390;2024-03-02T07:43:10;99771.97;;;8.18;100.00
77325;BME280;66387;53.440;10.390;2024-03-02T07:45:36;99780.53;;;8.20;100.00
77325;BME280;66387;53.440;10.390;2024-03-02T07:48:02;99790.81;;;8.25;100.00
77325;BME280;66387;53.440;10.390;2024-03-02T07:50:29;99789.91;;;8.29;100.00
77325;BME280;66387;53.440;10.390;2024-03-02T07:52:55;99802.72;;;8.35;100.00
77325;BME280;66387;53.440;10.390;2024-03-02T07:55:20;99796.63;;;8.39;100.00
77325;BME280;66387;53.440;10.390;2024-03-02T07:57:46;99807.75;;;8.43;100.00
77325;BME280;66387;53.440;10.390;2024-03-02T08:00:11;99794.78;;;8.46;100.00
77325;BME280;66387;53.440;10.390;2024-03-02T08:02:37;99803.34;;;8.49;100.00
77325;BME280;66387;53.440;10.390;2024-03-02T08:05:02;99808.34;;;8.58;100.00
77325;BME280;66387;53.440;10.390;2024-03-02T08:07:27;99806.56;;;8.62;100.00
77325;BME280;66387;53.440;10.390;2024-03-02T08:09:52;99813.28;;;8.72;100.00
77325;BME280;66387;53.440;10.390;2024-03-02T08:12:18;99817.44;;;8.79;100.00
77325;BME280;66387;53.440;10.390;2024-03-02T08:14:44;99814.84;;;8.80;100.00
77325;BME280;66387;53.440;10.390;2024-03-02T08:17:10;99819.91;;;8.86;100.00
77325;BME280;66387;53.440;10.390;2024-03-02T08:19:36;99822.28;;;8.97;100.00
77325;BME280;66387;53.440;10.390;2024-03-02T08:22:02;99822.19;;;9.02;100.00
77325;BME280;66387;53.440;10.390;2024-03-02T08:24:28;99822.91;;;9.10;100.00
77325;BME280;66387;53.440;10.390;2024-03-02T08:26:53;99819.19;;;9.23;100.00
77325;BME280;66387;53.440;10.390;2024-03-02T08:29:18;99828.44;;;9.34;100.00
77325;BME280;66387;53.440;10.390;2024-03-02T08:31:43;99826.50;;;9.44;100.00
77325;BME280;66387;53.440;10.390;2024-03-02T08:34:09;99828.81;;;9.58;100.00
77325;BME280;66387;53.440;10.390;2024-03-02T08:36:34;99824.25;;;9.69;100.00
77325;BME280;66387;53.440;10.390;2024-03-02T08:38:59;99830.31;;;9.68;100.00
77325;BME280;66387;53.440;10.390;2024-03-02T08:41:25;99831.09;;;9.71;100.00
77325;BME280;66387;53.440;10.390;2024-03-02T08:43:50;99834.75;;;9.63;100.00
77325;BME280;66387;53.440;10.390;2024-03-02T08:46:15;99839.75;;;9.72;100.00
77325;BME280;66387;53.440;10.390;2024-03-02T08:48:41;99830.16;;;9.75;100.00
77325;BME280;66387;53.440;10.390;2024-03-02T08:51:06;99831.66;;;9.84;100.00
77325;BME280;66387;53.440;10.390;2024-03-02T08:53:33;99839.53;;;9.81;100.00
77325;BME280;66387;53.440;10.390;2024-03-02T08:55:58;99837.69;;;9.86;100.00
77325;BME280;66387;53.440;10.390;2024-03-02T08:58:24;99838.16;;;10.03;100.00
77325;BME280;66387;53.440;10.390;2024-03-02T09:00:49;99839.53;;;10.19;100.00
77325;BME280;66387;53.440;10.390;2024-03-02T09:03:14;99830.03;;;10.18;100.00
77325;BME280;66387;53.440;10.390;2024-03-02T09:05:41;99835.81;;;10.29;100.00
77325;BME280;66387;53.440;10.390;2024-03-02T09:08:08;99836.34;;;10.44;100.00
77325;BME280;66387;53.440;10.390;2024-03-02T09:10:33;99835.94;;;10.59;100.00
77325;BME280;66387;53.440;10.390;2024-03-02T09:12:58;99827.91;;;10.68;100.00
77325;BME280;66387;53.440;10.390;2024-03-02T09:15:24;99837.84;;;10.52;100.00
77325;BME280;66387;53.440;10.390;2024-03-02T09:17:49;99843.06;;;10.51;100.00
77325;BME280;66387;53.440;10.390;2024-03-02T09:20:14;99837.38;;;10.70;100.00
77325;BME280;66387;53.440;10.390;2024-03-02T09:22:39;99840.66;;;10.77;100.00
77325;BME280;66387;53.440;10.390;2024-03-02T09:25:05;99837.50;;;10.98;100.00
77325;BME280;66387;53.440;10.390;2024-03-02T09:27:36;99838.81;;;11.13;100.00
77325;BME280;66387;53.440;10.390;2024-03-02T09:30:01;99839.41;;;11.22;100.00
77325;BME280;66387;53.440;10.390;2024-03-02T09:32:26;99828.00;;;11.28;100.00
77325;BME280;66387;53.440;10.390;2024-03-02T09:34:52;99830.09;;;11.15;100.00
77325;BME280;66387;53.440;10.390;2024-03-02T09:37:18;99840.56;;;11.12;100.00
77325;BME280;66387;53.440;10.390;2024-03-02T09:39:43;99835.06;;;11.23;100.00
77325;BME280;66387;53.440;10.390;2024-03-02T09:42:10;99828.97;;;11.25;100.00
77325;BME280;66387;53.440;10.390;2024-03-02T09:44:35;99840.69;;;11.39;100.00
77325;BME280;66387;53.440;10.390;2024-03-02T09:47:00;99839.06;;;11.35;100.00
77325;BME280;66387;53.440;10.390;2024-03-02T09:49:26;99843.75;;;11.53;100.00
77325;BME280;66387;53.440;10.390;2024-03-02T09:51:52;99843.41;;;11.63;100.00
77325;BME280;66387;53.440;10.390;2024-03-02T09:54:17;99846.16;;;11.59;100.00
77325;BME280;66387;53.440;10.390;2024-03-02T09:56:44;99838.63;;;11.50;100.00
77325;BME280;66387;53.440;10.390;2024-03-02T09:59:09;99846.03;;;11.63;100.00
77325;BME280;66387;53.440;10.390;2024-03-02T10:01:34;99846.69;;;11.71;99.57
77325;BME280;66387;53.440;10.390;2024-03-02T10:04:00;99853.16;;;11.86;100.00
77325;BME280;66387;53.440;10.390;2024-03-02T10:06:28;99840.63;;;11.69;97.01
77325;BME280;66387;53.440;10.390;2024-03-02T10:08:54;99842.56;;;11.92;95.78
77325;BME280;66387;53.440;10.390;2024-03-02T10:13:50;99846.03;;;11.93;92.62
77325;BME280;66387;53.440;10.390;2024-03-02T10:16:16;99838.75;;;12.04;93.38
77325;BME280;66387;53.440;10.390;2024-03-02T10:18:42;99842.09;;;12.07;93.25
77325;BME280;66387;53.440;10.390;2024-03-02T10:21:13;99847.03;;;12.16;93.52
77325;BME280;66387;53.440;10.390;2024-03-02T10:23:39;99841.91;;;12.13;94.97
77325;BME280;66387;53.440;10.390;2024-03-02T10:26:16;99846.72;;;12.25;96.64
77325;BME280;66387;53.440;10.390;2024-03-02T10:28:48;99850.06;;;12.29;95.55
77325;BME280;66387;53.440;10.390;2024-03-02T10:31:14;99852.69;;;12.29;96.68
77325;BME280;66387;53.440;10.390;2024-03-02T10:33:39;99855.25;;;12.31;97.11
77325;BME280;66387;53.440;10.390;2024-03-02T10:36:05;99861.13;;;12.36;96.04
77325;BME280;66387;53.440;10.390;2024-03-02T10:38:30;99857.75;;;12.34;94.87
77325;BME280;66387;53.440;10.390;2024-03-02T10:40:57;99854.88;;;12.15;92.92
77325;BME280;66387;53.440;10.390;2024-03-02T10:43:24;99856.50;;;12.17;91.62
77325;BME280;66387;53.440;10.390;2024-03-02T10:45:51;99851.78;;;12.30;91.04
77325;BME280;66387;53.440;10.390;2024-03-02T10:48:17;99854.31;;;12.32;89.46
77325;BME280;66387;53.440;10.390;2024-03-02T10:50:43;99854.13;;;12.38;89.87
77325;BME280;66387;53.440;10.390;2024-03-02T10:53:08;99861.44;;;12.53;88.83
77325;BME280;66387;53.440;10.390;2024-03-02T10:55:33;99855.94;;;12.62;87.41
77325;BME280;66387;53.440;10.390;2024-03-02T10:58:00;99853.31;;;12.62;86.57
77325;BME280;66387;53.440;10.390;2024-03-02T11:00:33;99855.75;;;12.93;84.59
77325;BME280;66387;53.440;10.390;2024-03-02T11:03:05;99855.84;;;13.39;81.38
77325;BME280;66387;53.440;10.390;2024-03-02T11:05:36;99848.63;;;13.46;79.92
77325;BME280;66387;53.440;10.390;2024-03-02T11:08:08;99856.13;;;13.32;79.16
77325;BME280;66387;53.440;10.390;2024-03-02T11:10:41;99842.84;;;13.14;79.55
77325;BME280;66387;53.440;10.390;2024-03-02T11:13:11;99849.94;;;13.34;79.86
77325;BME280;66387;53.440;10.390;2024-03-02T11:15:37;99850.63;;;13.39;77.98
77325;BME280;66387;53.440;10.390;2024-03-02T11:18:05;99849.50;;;13.46;76.93
77325;BME280;66387;53.440;10.390;2024-03-02T11:20:36;99852.47;;;13.59;75.13
77325;BME280;66387;53.440;10.390;2024-03-02T11:23:08;99844.50;;;13.85;74.57
77325;BME280;66387;53.440;10.390;2024-03-02T11:25:34;99849.66;;;13.65;73.72
77325;BME280;66387;53.440;10.390;2024-03-02T11:33:02;99853.97;;;13.66;72.47
77325;BME280;66387;53.440;10.390;2024-03-02T11:35:34;99858.53;;;13.83;71.27
77325;BME280;66387;53.440;10.390;2024-03-02T11:38:01;99853.38;;;14.03;69.87
77325;BME280;66387;53.440;10.390;2024-03-02T11:40:27;99851.69;;;14.23;67.96
77325;BME280;66387;53.440;10.390;2024-03-02T11:42:53;99851.13;;;14.39;68.17
77325;BME280;66387;53.440;10.390;2024-03-02T11:45:25;99846.69;;;14.61;68.10
77325;BME280;66387;53.440;10.390;2024-03-02T11:47:52;99847.22;;;14.69;67.87
77325;BME280;66387;53.440;10.390;2024-03-02T11:50:35;99840.31;;;14.88;65.39
77325;BME280;66387;53.440;10.390;2024-03-02T11:53:03;99851.03;;;14.82;64.79
77325;BME280;66387;53.440;10.390;2024-03-02T11:55:31;99846.19;;;14.93;66.02
77325;BME280;66387;53.440;10.390;2024-03-02T11:58:01;99841.31;;;15.25;64.33
77325;BME280;66387;53.440;10.390;2024-03-02T12:00:27;99842.34;;;15.41;64.23
77325;BME280;66387;53.440;10.390;2024-03-02T12:03:03;99833.03;;;14.95;63.74
77325;BME280;66387;53.440;10.390;2024-03-02T12:05:29;99842.72;;;14.93;64.58
77325;BME280;66387;53.440;10.390;2024-03-02T12:07:57;99845.16;;;14.77;65.16
77325;BME280;66387;53.440;10.390;2024-03-02T12:10:22;99844.53;;;14.50;65.80
77325;BME280;66387;53.440;10.390;2024-03-02T12:12:47;99845.03;;;13.95;67.51
77325;BME280;66387;53.440;10.390;2024-03-02T12:15:13;99840.63;;;13.95;68.91
77325;BME280;66387;53.440;10.390;2024-03-02T12:17:38;99848.97;;;13.83;69.48
77325;BME280;66387;53.440;10.390;2024-03-02T12:20:05;99851.13;;;13.72;70.34
77325;BME280;66387;53.440;10.390;2024-03-02T12:22:32;99855.03;;;13.37;70.99
77325;BME280;66387;53.440;10.390;2024-03-02T12:24:57;99855.94;;;13.36;70.89
77325;BME280;66387;53.440;10.390;2024-03-02T12:27:22;99848.91;;;13.15;72.16
77325;BME280;66387;53.440;10.390;2024-03-02T12:29:48;99849.22;;;13.04;73.06
77325;BME280;66387;53.440;10.390;2024-03-02T12:32:14;99851.94;;;13.01;74.14
77325;BME280;66387;53.440;10.390;2024-03-02T12:34:39;99849.56;;;12.95;75.02
77325;BME280;66387;53.440;10.390;2024-03-02T12:37:04;99851.06;;;13.02;75.98
77325;BME280;66387;53.440;10.390;2024-03-02T12:39:30;99839.38;;;12.89;75.62
77325;BME280;66387;53.440;10.390;2024-03-02T12:41:57;99838.53;;;12.89;75.30
77325;BME280;66387;53.440;10.390;2024-03-02T12:44:23;99843.66;;;12.90;76.93
77325;BME280;66387;53.440;10.390;2024-03-02T12:46:48;99846.38;;;12.87;76.54
77325;BME280;66387;53.440;10.390;2024-03-02T12:49:15;99852.84;;;12.75;76.32
77325;BME280;66387;53.440;10.390;2024-03-02T12:51:45;99849.38;;;12.75;76.31
77325;BME280;66387;53.440;10.390;2024-03-02T12:54:16;99845.16;;;12.72;77.22
77325;BME280;66387;53.440;10.390;2024-03-02T12:56:42;99842.28;;;12.80;77.61
77325;BME280;66387;53.440;10.390;2024-03-02T12:59:18;99843.09;;;12.82;77.28
77325;BME280;66387;53.440;10.390;2024-03-02T13:01:54;99843.47;;;12.96;80.00
77325;BME280;66387;53.440;10.390;2024-03-02T13:04:25;99842.81;;;12.90;77.77
77325;BME280;66387;53.440;10.390;2024-03-02T13:06:52;99840.03;;;12.94;77.75
77325;BME280;66387;53.440;10.390;2024-03-02T13:09:17;99832.13;;;12.97;77.29
77325;BME280;66387;53.440;10.390;2024-03-02T13:11:42;99841.63;;;12.98;78.04
77325;BME280;66387;53.440;10.390;2024-03-02T13:14:10;99839.41;;;12.88;78.06
77325;BME280;66387;53.440;10.390;2024-03-02T13:16:39;99835.09;;;12.87;78.51
77325;BME280;66387;53.440;10.390;2024-03-02T13:19:15;99841.88;;;12.92;78.87
77325;BME280;66387;53.440;10.390;2024-03-02T13:21:43;99847.75;;;12.97;79.38
77325;BME280;66387;53.440;10.390;2024-03-02T13:24:09;99840.13;;;12.93;80.34
77325;BME280;66387;53.440;10.390;2024-03-02T13:26:34;99836.50;;;12.97;79.69
77325;BME280;66387;53.440;10.390;2024-03-02T13:29:00;99840.97;;;12.93;79.23
77325;BME280;66387;53.440;10.390;2024-03-02T13:31:25;99846.59;;;12.81;78.82
77325;BME280;66387;53.440;10.390;2024-03-02T13:33:50;99847.59;;;12.77;79.04
77325;BME280;66387;53.440;10.390;2024-03-02T13:36:15;99840.69;;;12.76;80.57
77325;BME280;66387;53.440;10.390;2024-03-02T13:38:41;99848.34;;;12.81;81.17
77325;BME280;66387;53.440;10.390;2024-03-02T13:41:06;99844.13;;;12.76;81.56
77325;BME280;66387;53.440;10.390;2024-03-02T13:43:31;99843.25;;;12.77;82.80
77325;BME280;66387;53.440;10.390;2024-03-02T13:45:58;99838.41;;;12.67;83.61
77325;BME280;66387;53.440;10.390;2024-03-02T13:48:24;99839.19;;;12.69;84.04
77325;BME280;66387;53.440;10.390;2024-03-02T13:50:51;99843.50;;;12.70;85.27
77325;BME280;66387;53.440;10.390;2024-03-02T13:53:17;99838.50;;;12.64;85.03
77325;BME280;66387;53.440;10.390;2024-03-02T13:55:42;99838.41;;;12.67;86.26
77325;BME280;66387;53.440;10.390;2024-03-02T13:58:08;99840.09;;;12.68;86.14
77325;BME280;66387;53.440;10.390;2024-03-02T14:00:33;99837.28;;;12.74;87.69
77325;BME280;66387;53.440;10.390;2024-03-02T14:02:59;99837.19;;;12.77;87.63
77325;BME280;66387;53.440;10.390;2024-03-02T14:05:24;99832.84;;;12.77;88.53
77325;BME280;66387;53.440;10.390;2024-03-02T14:07:49;99833.31;;;12.64;87.23
77325;BME280;66387;53.440;10.390;2024-03-02T14:10:15;99833.38;;;12.61;88.00
77325;BME280;66387;53.440;10.390;2024-03-02T14:12:41;99825.75;;;12.56;87.17
77325;BME280;66387;53.440;10.390;2024-03-02T14:15:06;99819.81;;;12.53;87.40
77325;BME280;66387;53.440;10.390;2024-03-02T14:17:32;99816.28;;;12.54;87.56
77325;BME280;66387;53.440;10.390;2024-03-02T14:19:57;99822.97;;;12.61;87.89
77325;BME280;66387;53.440;10.390;2024-03-02T14:22:24;99818.69;;;12.60;86.83
77325;BME280;66387;53.440;10.390;2024-03-02T14:24:49;99822.16;;;12.60;87.45
77325;BME280;66387;53.440;10.390;2024-03-02T14:27:15;99818.84;;;12.55;87.10
77325;BME280;66387;53.440;10.390;2024-03-02T14:29:42;99817.75;;;12.61;89.45
77325;BME280;66387;53.440;10.390;2024-03-02T14:32:07;99812.94;;;12.75;89.35
77325;BME280;66387;53.440;10.390;2024-03-02T14:34:32;99815.53;;;12.75;86.56
77325;BME280;66387;53.440;10.390;2024-03-02T14:36:58;99810.44;;;12.72;85.53
77325;BME280;66387;53.440;10.390;2024-03-02T14:39:23;99813.03;;;12.72;85.31
77325;BME280;66387;53.440;10.390;2024-03-02T14:41:48;99822.44;;;12.76;84.20
77325;BME280;66387;53.440;10.390;2024-03-02T14:44:14;99805.22;;;12.72;82.87
77325;BME280;66387;53.440;10.390;2024-03-02T14:46:40;99812.03;;;12.76;83.16
77325;BME280;66387;53.440;10.390;2024-03-02T14:49:06;99805.22;;;12.72;81.94
77325;BME280;66387;53.440;10.390;2024-03-02T14:51:31;99808.53;;;12.77;81.42
77325;BME280;66387;53.440;10.390;2024-03-02T14:53:56;99805.19;;;12.73;79.82
77325;BME280;66387;53.440;10.390;2024-03-02T14:56:21;99809.38;;;12.77;80.04
77325;BME280;66387;53.440;10.390;2024-03-02T14:58:47;99807.47;;;12.83;79.28
77325;BME280;66387;53.440;10.390;2024-03-02T15:01:13;99813.13;;;12.94;79.15
77325;BME280;66387;53.440;10.390;2024-03-02T15:03:39;99805.44;;;12.91;77.21
77325;BME280;66387;53.440;10.390;2024-03-02T15:06:05;99814.34;;;13.08;76.70
77325;BME280;66387;53.440;10.390;2024-03-02T15:08:32;99805.72;;;13.31;74.85
77325;BME280;66387;53.440;10.390;2024-03-02T15:10:57;99804.59;;;13.83;74.32
77325;BME280;66387;53.440;10.390;2024-03-02T15:13:24;99801.50;;;14.39;70.56
77325;BME280;66387;53.440;10.390;2024-03-02T15:15:51;99794.84;;;14.52;68.12
77325;BME280;66387;53.440;10.390;2024-03-02T15:18:17;99802.69;;;14.92;67.04
77325;BME280;66387;53.440;10.390;2024-03-02T15:20:42;99798.69;;;15.04;66.23
77325;BME280;66387;53.440;10.390;2024-03-02T15:23:07;99797.41;;;15.12;65.78